Time;durP1;ratioP1;P1;durP2;ratioP2;P2;SDS_P1;SDS_P2;PMS_P1;PMS_P2;Temp;Humidity;BMP_temperature;BMP_pressure;BME280_temperature;BME280_humidity;BME280_pressure;Samples;Min_cycle;Max_cycle;Signal;HPM_P1;HPM_P2
2023/06/23 00:00:00;;;;;;;;;;;23.40;74.20;;;;;;5011012;28;88072;-42
2023/06/23 00:02:26;;;;;;;;;;;23.40;74.10;;;;;;5013042;28;86325;-43
2023/06/23 00:04:52;;;;;;;;;;;23.40;74.00;;;;;;5014228;28;87698;-45
2023/06/23 00:07:17;;;;;;;;;;;23.40;74.10;;;;;;5012412;28;88296;-45
2023/06/23 00:09:43;;;;;;;;;;;23.40;74.00;;;;;;5012971;28;88819;-44
2023/06/23 00:12:09;;;;;;;;;;;23.40;74.10;;;;;;5014982;28;89814;-44
2023/06/23 00:14:34;;;;;;;;;;;23.40;74.00;;;;;;5011969;28;87286;-45
2023/06/23 00:17:00;;;;;;;;;;;23.40;74.00;;;;;;5013059;28;89026;-47
2023/06/23 00:19:26;;;;;;;;;;;23.30;73.90;;;;;;5013427;28;88155;-44
2023/06/23 00:21:52;;;;;;;;;;;23.40;74.00;;;;;;5013252;28;87563;-43
2023/06/23 00:24:17;;;;;;;;;;;23.30;74.00;;;;;;5013552;28;87565;-44
2023/06/23 00:26:43;;;;;;;;;;;23.30;74.10;;;;;;5012783;28;87392;-45
2023/06/23 00:29:09;;;;;;;;;;;23.30;74.00;;;;;;5011895;28;87746;-44
2023/06/23 00:31:34;;;;;;;;;;;23.30;74.00;;;;;;5017276;28;88787;-42
2023/06/23 00:34:00;;;;;;;;;;;23.30;74.00;;;;;;5011381;28;88076;-44
2023/06/23 00:36:30;;;;;;;;;;;23.30;74.00;;;;;;5014920;28;88591;-43
2023/06/23 00:38:56;;;;;;;;;;;23.20;74.00;;;;;;5010830;28;89455;-43
2023/06/23 00:41:21;;;;;;;;;;;23.30;73.90;;;;;;5014322;28;87101;-44
2023/06/23 00:43:50;;;;;;;;;;;23.20;73.90;;;;;;5011709;28;87490;-44
2023/06/23 00:46:21;;;;;;;;;;;23.20;73.90;;;;;;5011588;28;89413;-44
2023/06/23 00:48:50;;;;;;;;;;;23.20;73.90;;;;;;5014305;28;87105;-46
2023/06/23 00:51:16;;;;;;;;;;;23.20;73.90;;;;;;5012800;28;86793;-45
2023/06/23 00:53:46;;;;;;;;;;;23.20;73.90;;;;;;5017021;28;87979;-45
2023/06/23 00:56:15;;;;;;;;;;;23.10;73.90;;;;;;5012470;28;88679;-43
2023/06/23 00:58:41;;;;;;;;;;;23.20;73.90;;;;;;5011984;28;89329;-47
2023/06/23 01:01:07;;;;;;;;;;;23.20;73.90;;;;;;5011722;28;88591;-45
2023/06/23 01:03:34;;;;;;;;;;;23.20;73.90;;;;;;5011962;28;87405;-47
2023/06/23 01:06:04;;;;;;;;;;;23.10;73.90;;;;;;5011784;28;89373;-45
2023/06/23 01:08:38;;;;;;;;;;;23.10;73.90;;;;;;5011949;28;87172;-43
2023/06/23 01:11:06;;;;;;;;;;;23.10;73.90;;;;;;5010094;28;87421;-44
2023/06/23 01:13:41;;;;;;;;;;;23.10;73.90;;;;;;5012800;28;87919;-42
2023/06/23 01:16:29;;;;;;;;;;;23.10;73.90;;;;;;5010590;28;86320;-45
2023/06/23 01:19:13;;;;;;;;;;;23.10;73.80;;;;;;5001342;28;89593;-44
2023/06/23 01:21:43;;;;;;;;;;;23.10;73.90;;;;;;5008698;28;87266;-43
2023/06/23 01:24:24;;;;;;;;;;;23.10;73.90;;;;;;5009757;28;87921;-43
2023/06/23 01:26:55;;;;;;;;;;;23.10;73.90;;;;;;5012920;28;88231;-42
2023/06/23 01:29:24;;;;;;;;;;;23.00;73.80;;;;;;5005987;28;87148;-43
2023/06/23 01:31:52;;;;;;;;;;;23.00;73.90;;;;;;5007343;28;87334;-43
2023/06/23 01:34:20;;;;;;;;;;;23.00;73.90;;;;;;5009586;28;88686;-42
2023/06/23 01:36:49;;;;;;;;;;;23.00;73.90;;;;;;5013390;28;87094;-44
2023/06/23 01:39:17;;;;;;;;;;;23.00;73.90;;;;;;5012045;28;88815;-43
2023/06/23 01:41:48;;;;;;;;;;;22.90;73.80;;;;;;5012557;28;86275;-43
2023/06/23 01:44:14;;;;;;;;;;;23.00;73.90;;;;;;5011595;28;86966;-44
2023/06/23 01:46:42;;;;;;;;;;;23.00;73.90;;;;;;5005658;28;88131;-43
2023/06/23 01:49:11;;;;;;;;;;;22.90;73.80;;;;;;5012264;28;88084;-44
2023/06/23 01:51:38;;;;;;;;;;;22.90;73.90;;;;;;5011866;28;89771;-44
2023/06/23 01:54:06;;;;;;;;;;;22.90;73.80;;;;;;5011975;28;88185;-44
2023/06/23 01:56:32;;;;;;;;;;;22.90;73.80;;;;;;5011527;28;87010;-43
2023/06/23 01:58:59;;;;;;;;;;;22.80;73.80;;;;;;5012450;28;87517;-45
2023/06/23 02:01:25;;;;;;;;;;;22.80;73.90;;;;;;5012076;28;88273;-42
2023/06/23 02:03:50;;;;;;;;;;;22.80;73.90;;;;;;5011369;28;87575;-45
2023/06/23 02:06:16;;;;;;;;;;;22.80;74.00;;;;;;5012840;28;87355;-47
2023/06/23 02:08:42;;;;;;;;;;;22.70;73.90;;;;;;5011308;28;87509;-44
2023/06/23 02:11:08;;;;;;;;;;;22.70;73.80;;;;;;5012523;28;87329;-43
2023/06/23 02:13:35;;;;;;;;;;;22.70;73.90;;;;;;5009759;28;88984;-44
2023/06/23 02:16:01;;;;;;;;;;;22.70;73.90;;;;;;5008011;28;87106;-44
2023/06/23 02:18:27;;;;;;;;;;;22.70;73.90;;;;;;5013466;28;87582;-45
2023/06/23 02:20:53;;;;;;;;;;;22.70;73.90;;;;;;5010129;28;88199;-44
2023/06/23 02:23:19;;;;;;;;;;;22.70;73.80;;;;;;5016468;28;87771;-44
2023/06/23 02:25:45;;;;;;;;;;;22.70;74.00;;;;;;5009248;28;88029;-44
2023/06/23 02:28:11;;;;;;;;;;;22.60;73.90;;;;;;5013622;28;87028;-42
2023/06/23 02:30:38;;;;;;;;;;;22.60;73.90;;;;;;5006680;28;87448;-45
2023/06/23 02:33:03;;;;;;;;;;;22.60;74.10;;;;;;5005389;28;88420;-42
2023/06/23 02:35:29;;;;;;;;;;;22.60;73.90;;;;;;5013622;28;87215;-43
2023/06/23 02:37:58;;;;;;;;;;;22.60;74.00;;;;;;5009727;28;88291;-44
2023/06/23 02:40:25;;;;;;;;;;;22.50;73.90;;;;;;5012418;28;87841;-45
2023/06/23 02:43:02;;;;;;;;;;;22.50;74.00;;;;;;5012580;28;87244;-45
2023/06/23 02:45:33;;;;;;;;;;;22.50;74.00;;;;;;5007789;28;88778;-43
2023/06/23 02:47:59;;;;;;;;;;;22.50;74.00;;;;;;5010270;28;88984;-43
2023/06/23 02:50:28;;;;;;;;;;;22.50;74.10;;;;;;5011216;28;87072;-43
2023/06/23 02:52:58;;;;;;;;;;;22.40;73.90;;;;;;5011118;28;89205;-44
2023/06/23 02:55:25;;;;;;;;;;;22.40;74.10;;;;;;5010635;28;86389;-42
2023/06/23 02:57:52;;;;;;;;;;;22.40;74.00;;;;;;5011418;28;86996;-43
2023/06/23 03:00:22;;;;;;;;;;;22.40;74.00;;;;;;5010899;28;87815;-45
2023/06/23 03:02:50;;;;;;;;;;;22.40;73.90;;;;;;5007568;28;88227;-44
2023/06/23 03:05:16;;;;;;;;;;;22.40;74.00;;;;;;5012980;28;88512;-46
2023/06/23 03:07:41;;;;;;;;;;;22.30;74.10;;;;;;5007728;28;87215;-44
2023/06/23 03:10:07;;;;;;;;;;;22.30;74.00;;;;;;5003747;28;87800;-42
2023/06/23 03:12:33;;;;;;;;;;;22.30;74.00;;;;;;5005939;28;88098;-45
2023/06/23 03:14:59;;;;;;;;;;;22.30;74.00;;;;;;5011415;28;87159;-46
2023/06/23 03:17:26;;;;;;;;;;;22.30;74.10;;;;;;5006603;28;88875;-43
2023/06/23 03:20:06;;;;;;;;;;;22.30;74.10;;;;;;5004659;28;88617;-45
2023/06/23 03:22:36;;;;;;;;;;;22.30;74.00;;;;;;5009534;28;87211;-43
2023/06/23 03:25:04;;;;;;;;;;;22.30;73.90;;;;;;5004604;28;88649;-43
2023/06/23 03:27:31;;;;;;;;;;;22.30;73.90;;;;;;5007939;28;89034;-44
2023/06/23 03:30:02;;;;;;;;;;;22.30;74.00;;;;;;4996057;28;90379;-43
2023/06/23 03:32:33;;;;;;;;;;;22.20;74.00;;;;;;5006702;28;89384;-45
2023/06/23 03:35:00;;;;;;;;;;;22.20;73.90;;;;;;5014752;28;87746;-45
2023/06/23 03:37:27;;;;;;;;;;;22.20;73.90;;;;;;5008057;28;87801;-43
2023/06/23 03:39:58;;;;;;;;;;;22.20;74.00;;;;;;5001084;28;90001;-43
2023/06/23 03:42:24;;;;;;;;;;;22.20;74.00;;;;;;5005297;28;87309;-42
2023/06/23 03:44:51;;;;;;;;;;;22.20;74.00;;;;;;5015083;28;89063;-43
2023/06/23 03:47:18;;;;;;;;;;;22.10;74.00;;;;;;5006126;28;89417;-45
2023/06/23 03:49:50;;;;;;;;;;;22.10;74.00;;;;;;5007109;28;87110;-43
2023/06/23 03:52:17;;;;;;;;;;;22.10;74.00;;;;;;5013040;28;89274;-45
2023/06/23 03:54:43;;;;;;;;;;;22.10;74.00;;;;;;5012052;28;87157;-44
2023/06/23 03:57:10;;;;;;;;;;;22.10;74.00;;;;;;5004138;28;89244;-43
2023/06/23 03:59:37;;;;;;;;;;;22.10;73.90;;;;;;5004731;28;87843;-46
2023/06/23 04:02:04;;;;;;;;;;;22.10;74.00;;;;;;5014249;28;87114;-43
2023/06/23 04:04:31;;;;;;;;;;;22.10;74.00;;;;;;5010115;28;86982;-45
2023/06/23 04:06:58;;;;;;;;;;;22.10;74.10;;;;;;5003787;28;89360;-43
2023/06/23 04:09:24;;;;;;;;;;;22.10;74.10;;;;;;5007497;28;86684;-45
2023/06/23 04:11:50;;;;;;;;;;;22.10;74.00;;;;;;5015592;28;87226;-43
2023/06/23 04:14:17;;;;;;;;;;;22.10;74.10;;;;;;5003957;28;87141;-44
2023/06/23 04:16:45;;;;;;;;;;;22.00;74.00;;;;;;5000863;28;88143;-44
2023/06/23 04:19:11;;;;;;;;;;;22.00;74.00;;;;;;5010559;28;89435;-46
2023/06/23 04:21:38;;;;;;;;;;;22.00;74.10;;;;;;5013336;28;87539;-47
2023/06/23 04:24:04;;;;;;;;;;;22.00;74.00;;;;;;5008767;28;87514;-44
2023/06/23 04:26:31;;;;;;;;;;;22.00;74.00;;;;;;5004519;28;88127;-45
2023/06/23 04:28:59;;;;;;;;;;;22.00;74.00;;;;;;5008460;28;87295;-45
2023/06/23 04:31:26;;;;;;;;;;;22.00;74.00;;;;;;5013819;28;89058;-46
2023/06/23 04:33:51;;;;;;;;;;;22.00;73.90;;;;;;5007056;28;87770;-45
2023/06/23 04:36:20;;;;;;;;;;;22.00;74.00;;;;;;5008154;28;87171;-47
2023/06/23 04:38:52;;;;;;;;;;;22.00;73.90;;;;;;5010841;28;89575;-47
2023/06/23 04:41:19;;;;;;;;;;;22.00;73.90;;;;;;5010434;28;89267;-45
2023/06/23 04:43:48;;;;;;;;;;;22.00;73.90;;;;;;5009503;28;89581;-43
2023/06/23 04:46:24;;;;;;;;;;;22.00;73.90;;;;;;4999100;28;88209;-43
2023/06/23 04:48:54;;;;;;;;;;;22.00;74.00;;;;;;5014883;28;87040;-44
2023/06/23 04:51:21;;;;;;;;;;;22.00;73.90;;;;;;5006216;28;87129;-44
2023/06/23 04:53:49;;;;;;;;;;;22.00;73.90;;;;;;5005698;28;88150;-44
2023/06/23 04:56:18;;;;;;;;;;;22.00;74.00;;;;;;5004413;28;87445;-45
2023/06/23 04:58:46;;;;;;;;;;;22.00;74.00;;;;;;5007657;28;88661;-43
2023/06/23 05:01:12;;;;;;;;;;;22.00;74.00;;;;;;5012882;28;87146;-42
2023/06/23 05:03:39;;;;;;;;;;;22.00;73.90;;;;;;5004115;28;87590;-43
2023/06/23 05:06:06;;;;;;;;;;;22.00;73.90;;;;;;5008716;28;89322;-45
2023/06/23 05:08:32;;;;;;;;;;;22.00;74.40;;;;;;5011502;28;88093;-46
2023/06/23 05:10:59;;;;;;;;;;;22.00;73.80;;;;;;5012651;28;87718;-48
2023/06/23 05:13:27;;;;;;;;;;;22.00;73.80;;;;;;5008742;28;91341;-44
2023/06/23 05:15:53;;;;;;;;;;;22.00;73.80;;;;;;5007437;28;87545;-44
2023/06/23 05:18:19;;;;;;;;;;;22.00;73.80;;;;;;5014003;28;89265;-44
2023/06/23 05:20:45;;;;;;;;;;;22.00;73.80;;;;;;5002226;28;87683;-43
2023/06/23 05:23:12;;;;;;;;;;;22.00;73.80;;;;;;5004507;28;86601;-47
2023/06/23 05:25:38;;;;;;;;;;;22.00;73.80;;;;;;5005445;28;89223;-44
2023/06/23 05:28:05;;;;;;;;;;;22.00;73.90;;;;;;5011126;28;87201;-47
2023/06/23 05:30:31;;;;;;;;;;;22.00;74.00;;;;;;5013932;28;88683;-42
2023/06/23 05:32:58;;;;;;;;;;;22.00;74.00;;;;;;5006301;28;87997;-42
2023/06/23 05:35:24;;;;;;;;;;;22.00;74.00;;;;;;5011479;28;87268;-45
2023/06/23 05:37:50;;;;;;;;;;;22.00;74.00;;;;;;5013461;28;88860;-44
2023/06/23 05:40:16;;;;;;;;;;;22.00;74.00;;;;;;5006793;28;87575;-43
2023/06/23 05:42:42;;;;;;;;;;;22.00;74.00;;;;;;5001380;28;87497;-45
2023/06/23 05:45:08;;;;;;;;;;;22.00;74.10;;;;;;5007573;28;88389;-44
2023/06/23 05:47:35;;;;;;;;;;;22.00;74.10;;;;;;5011780;28;86443;-45
2023/06/23 05:50:05;;;;;;;;;;;22.00;74.10;;;;;;5009683;28;89623;-42
2023/06/23 05:52:32;;;;;;;;;;;22.00;74.10;;;;;;5000077;28;87663;-46
2023/06/23 05:54:59;;;;;;;;;;;22.10;74.20;;;;;;5009756;28;88058;-45
2023/06/23 05:57:29;;;;;;;;;;;22.00;74.20;;;;;;5010596;28;88560;-44
2023/06/23 06:00:01;;;;;;;;;;;22.10;74.30;;;;;;5003733;28;88655;-45
2023/06/23 06:02:28;;;;;;;;;;;22.00;74.20;;;;;;5004824;28;89741;-43
2023/06/23 06:04:55;;;;;;;;;;;22.00;74.30;;;;;;5009077;28;87940;-45
2023/06/23 06:07:22;;;;;;;;;;;22.00;74.40;;;;;;5010207;28;87164;-43
2023/06/23 06:09:48;;;;;;;;;;;22.00;74.40;;;;;;5000140;28;88874;-45
2023/06/23 06:12:15;;;;;;;;;;;22.00;74.40;;;;;;4997404;28;87717;-43
2023/06/23 06:14:42;;;;;;;;;;;22.00;74.40;;;;;;5006437;28;87120;-45
2023/06/23 06:17:07;;;;;;;;;;;22.00;74.40;;;;;;5005958;28;87016;-43
2023/06/23 06:19:34;;;;;;;;;;;22.00;74.50;;;;;;4999496;28;88700;-46
2023/06/23 06:22:01;;;;;;;;;;;22.00;74.50;;;;;;5007662;28;87286;-45
2023/06/23 06:24:29;;;;;;;;;;;22.00;74.50;;;;;;5009636;28;87251;-42
2023/06/23 06:26:56;;;;;;;;;;;22.00;74.60;;;;;;5000950;28;87119;-43
2023/06/23 06:29:22;;;;;;;;;;;22.00;74.60;;;;;;4997434;28;87437;-44
2023/06/23 06:31:48;;;;;;;;;;;22.00;74.60;;;;;;5006163;28;87804;-45
2023/06/23 06:34:15;;;;;;;;;;;22.00;74.60;;;;;;5013414;28;87330;-42
2023/06/23 06:36:41;;;;;;;;;;;22.10;74.60;;;;;;5010280;28;87223;-42
2023/06/23 06:39:06;;;;;;;;;;;22.00;74.60;;;;;;5000003;28;88065;-43
2023/06/23 06:41:32;;;;;;;;;;;22.00;74.70;;;;;;5006541;28;87303;-45
2023/06/23 06:43:58;;;;;;;;;;;22.00;74.70;;;;;;5014379;28;88007;-45
2023/06/23 06:46:24;;;;;;;;;;;22.10;74.70;;;;;;5003185;28;87233;-44
2023/06/23 06:48:50;;;;;;;;;;;22.10;74.80;;;;;;5003270;28;87496;-45
2023/06/23 06:51:17;;;;;;;;;;;22.00;74.70;;;;;;5009578;28;88185;-43
2023/06/23 06:53:43;;;;;;;;;;;22.00;74.70;;;;;;5011566;28;87135;-45
2023/06/23 06:56:09;;;;;;;;;;;22.00;74.80;;;;;;5002140;28;87617;-45
2023/06/23 06:58:35;;;;;;;;;;;22.00;74.70;;;;;;5004514;28;88026;-44
2023/06/23 07:01:00;;;;;;;;;;;22.00;74.80;;;;;;5012087;28;86411;-44
2023/06/23 07:03:26;;;;;;;;;;;22.00;74.80;;;;;;5015615;28;87943;-45
2023/06/23 07:05:51;;;;;;;;;;;22.00;74.90;;;;;;5008282;28;87309;-44
2023/06/23 07:08:17;;;;;;;;;;;22.00;75.00;;;;;;5012366;28;88175;-44
2023/06/23 07:10:42;;;;;;;;;;;22.00;75.00;;;;;;5013861;28;87157;-42
2023/06/23 07:13:08;;;;;;;;;;;22.00;75.00;;;;;;5013127;28;89014;-43
2023/06/23 07:15:33;;;;;;;;;;;22.00;75.00;;;;;;5005911;28;87733;-46
2023/06/23 07:17:59;;;;;;;;;;;22.00;75.10;;;;;;5001389;28;88069;-43
2023/06/23 07:20:24;;;;;;;;;;;22.00;75.10;;;;;;5016319;28;87317;-44
2023/06/23 07:22:50;;;;;;;;;;;22.00;75.10;;;;;;5013105;28;87532;-45
2023/06/23 07:25:15;;;;;;;;;;;22.00;75.20;;;;;;5009151;28;87038;-43
2023/06/23 07:27:41;;;;;;;;;;;22.00;75.10;;;;;;5006751;28;87301;-43
2023/06/23 07:30:06;;;;;;;;;;;22.00;75.10;;;;;;5012484;28;88146;-43
2023/06/23 07:32:32;;;;;;;;;;;22.00;75.30;;;;;;5008944;28;89814;-44
2023/06/23 07:34:57;;;;;;;;;;;22.00;75.30;;;;;;5010787;28;90505;-44
2023/06/23 07:37:23;;;;;;;;;;;22.00;75.20;;;;;;5002914;28;88172;-43
2023/06/23 07:39:49;;;;;;;;;;;22.00;75.80;;;;;;5014314;28;87233;-44
2023/06/23 07:42:14;;;;;;;;;;;22.10;75.30;;;;;;5006283;28;87686;-46
2023/06/23 07:44:40;;;;;;;;;;;22.00;75.20;;;;;;5011977;28;88297;-46
2023/06/23 07:47:06;;;;;;;;;;;22.10;75.20;;;;;;5016772;28;87232;-46
2023/06/23 07:49:31;;;;;;;;;;;22.10;75.30;;;;;;5014120;28;87471;-43
2023/06/23 07:52:00;;;;;;;;;;;22.10;75.30;;;;;;5014067;28;87090;-44
2023/06/23 07:54:44;;;;;;;;;;;22.10;75.30;;;;;;5013711;28;88967;-44
2023/06/23 07:57:11;;;;;;;;;;;22.10;75.30;;;;;;5007535;28;89134;-44
2023/06/23 07:59:37;;;;;;;;;;;22.10;75.40;;;;;;5009251;28;87256;-45
2023/06/23 08:02:03;;;;;;;;;;;22.10;75.20;;;;;;5012295;28;87571;-43
2023/06/23 08:04:29;;;;;;;;;;;22.10;75.20;;;;;;5007173;28;89348;-44
2023/06/23 08:06:54;;;;;;;;;;;22.10;75.30;;;;;;5015504;28;87197;-43
2023/06/23 08:09:20;;;;;;;;;;;22.10;75.30;;;;;;5014699;28;89049;-42
2023/06/23 08:11:45;;;;;;;;;;;22.10;75.20;;;;;;5015420;28;87205;-43
2023/06/23 08:14:11;;;;;;;;;;;22.20;75.30;;;;;;5011067;28;86600;-43
2023/06/23 08:16:37;;;;;;;;;;;22.20;75.30;;;;;;5012224;28;88715;-44
2023/06/23 08:19:02;;;;;;;;;;;22.20;75.30;;;;;;5014027;28;87006;-43
2023/06/23 08:21:28;;;;;;;;;;;22.20;75.30;;;;;;5012290;28;88552;-45
2023/06/23 08:23:54;;;;;;;;;;;22.20;75.40;;;;;;5013740;28;89397;-43
2023/06/23 08:26:19;;;;;;;;;;;22.20;75.30;;;;;;5013659;28;87166;-43
2023/06/23 08:28:45;;;;;;;;;;;22.20;75.30;;;;;;5009130;28;87557;-42
2023/06/23 08:31:11;;;;;;;;;;;22.20;75.30;;;;;;5013813;28;88652;-42
2023/06/23 08:33:37;;;;;;;;;;;22.20;75.20;;;;;;5013724;28;88825;-42
2023/06/23 08:36:03;;;;;;;;;;;22.20;75.40;;;;;;5012520;28;88212;-43
2023/06/23 08:38:28;;;;;;;;;;;22.20;75.30;;;;;;5014416;28;86412;-46
2023/06/23 08:40:54;;;;;;;;;;;22.20;75.30;;;;;;5012448;28;87063;-46
2023/06/23 08:43:26;;;;;;;;;;;22.20;75.30;;;;;;5013500;28;88124;-43
2023/06/23 08:46:02;;;;;;;;;;;22.20;75.30;;;;;;5010398;28;88192;-43
2023/06/23 08:48:29;;;;;;;;;;;22.20;75.30;;;;;;5013944;28;89764;-43
2023/06/23 08:50:55;;;;;;;;;;;22.30;75.30;;;;;;5012202;28;88374;-45
2023/06/23 08:53:22;;;;;;;;;;;22.30;75.40;;;;;;5016799;28;87133;-44
2023/06/23 08:55:48;;;;;;;;;;;22.30;75.30;;;;;;5011782;28;89484;-43
2023/06/23 08:58:14;;;;;;;;;;;22.30;75.30;;;;;;5012870;28;87035;-42
2023/06/23 09:00:40;;;;;;;;;;;22.30;75.30;;;;;;5009654;28;88255;-44
2023/06/23 09:03:05;;;;;;;;;;;22.30;75.20;;;;;;5012360;28;87430;-43
2023/06/23 09:05:31;;;;;;;;;;;22.30;75.30;;;;;;5012676;28;87203;-44
2023/06/23 09:07:56;;;;;;;;;;;22.30;75.40;;;;;;5013510;28;86882;-46
2023/06/23 09:10:24;;;;;;;;;;;22.30;75.30;;;;;;5011256;28;88734;-44
2023/06/23 09:13:10;;;;;;;;;;;22.40;75.30;;;;;;5015267;28;87189;-44
2023/06/23 09:15:36;;;;;;;;;;;22.40;75.30;;;;;;5004031;28;87994;-45
2023/06/23 09:18:02;;;;;;;;;;;22.40;75.30;;;;;;5006327;28;87307;-43
2023/06/23 09:20:30;;;;;;;;;;;22.40;75.30;;;;;;5014069;28;87649;-44
2023/06/23 09:22:57;;;;;;;;;;;22.40;75.30;;;;;;5006737;28;88174;-44
2023/06/23 09:25:36;;;;;;;;;;;22.40;75.30;;;;;;5006323;28;87140;-42
2023/06/23 09:28:01;;;;;;;;;;;22.40;75.30;;;;;;5008129;28;88832;-46
2023/06/23 09:30:33;;;;;;;;;;;22.40;75.20;;;;;;5009954;28;88723;-43
2023/06/23 09:32:59;;;;;;;;;;;22.50;75.30;;;;;;5012856;28;87168;-45
2023/06/23 09:35:25;;;;;;;;;;;22.50;75.20;;;;;;5014853;28;87998;-43
2023/06/23 09:37:50;;;;;;;;;;;22.50;75.20;;;;;;5012343;28;87471;-44
2023/06/23 09:40:23;;;;;;;;;;;22.50;75.20;;;;;;5012098;28;89020;-43
2023/06/23 09:42:49;;;;;;;;;;;22.50;75.10;;;;;;5012475;28;88301;-44
2023/06/23 09:45:17;;;;;;;;;;;22.60;75.20;;;;;;5007834;28;87391;-45
2023/06/23 09:47:43;;;;;;;;;;;22.60;75.20;;;;;;5012193;28;89226;-45
2023/06/23 09:50:15;;;;;;;;;;;22.60;75.20;;;;;;5012130;28;88259;-47
2023/06/23 09:52:40;;;;;;;;;;;22.60;75.20;;;;;;5012107;28;86291;-48
2023/06/23 09:55:06;;;;;;;;;;;22.60;75.10;;;;;;5012909;28;87153;-48
2023/06/23 09:57:32;;;;;;;;;;;22.60;75.10;;;;;;5014313;28;88248;-43
2023/06/23 09:59:58;;;;;;;;;;;22.60;75.10;;;;;;5010937;28;88391;-42
2023/06/23 10:02:25;;;;;;;;;;;22.60;75.10;;;;;;5012061;28;88042;-45
2023/06/23 10:04:51;;;;;;;;;;;22.70;75.10;;;;;;5012091;28;87210;-44
2023/06/23 10:07:18;;;;;;;;;;;22.70;75.10;;;;;;5011966;28;88659;-45
2023/06/23 10:09:48;;;;;;;;;;;22.70;75.00;;;;;;5011764;28;89363;-44
2023/06/23 10:12:13;;;;;;;;;;;22.70;75.00;;;;;;5012364;28;87124;-43
2023/06/23 10:14:39;;;;;;;;;;;22.70;75.00;;;;;;5010831;28;87289;-46
2023/06/23 10:17:05;;;;;;;;;;;22.80;75.10;;;;;;5009211;28;86995;-43
2023/06/23 10:19:30;;;;;;;;;;;22.80;75.00;;;;;;5014691;28;87188;-42
2023/06/23 10:21:56;;;;;;;;;;;22.80;75.00;;;;;;5012279;28;87511;-43
2023/06/23 10:24:22;;;;;;;;;;;22.80;75.00;;;;;;5009232;28;88802;-45
2023/06/23 10:26:50;;;;;;;;;;;22.80;75.00;;;;;;5012861;28;88473;-46
2023/06/23 10:29:17;;;;;;;;;;;22.80;75.00;;;;;;5010144;28;87686;-43
2023/06/23 10:31:43;;;;;;;;;;;22.80;74.90;;;;;;5010838;28;87135;-43
2023/06/23 10:34:12;;;;;;;;;;;22.90;75.00;;;;;;5012748;28;87433;-44
2023/06/23 10:36:39;;;;;;;;;;;22.90;75.00;;;;;;5010592;28;87137;-43
2023/06/23 10:39:05;;;;;;;;;;;22.90;74.90;;;;;;5015271;28;87130;-43
2023/06/23 10:41:32;;;;;;;;;;;22.90;74.90;;;;;;5016872;28;87544;-43
2023/06/23 10:43:59;;;;;;;;;;;22.90;74.90;;;;;;5011065;28;87167;-44
2023/06/23 10:46:24;;;;;;;;;;;22.90;74.90;;;;;;5016207;28;87704;-46
2023/06/23 10:48:50;;;;;;;;;;;22.90;74.90;;;;;;5012766;28;89213;-44
2023/06/23 10:51:16;;;;;;;;;;;23.00;75.00;;;;;;5016315;28;87154;-44
2023/06/23 10:53:46;;;;;;;;;;;22.90;74.80;;;;;;5013601;28;87551;-45
2023/06/23 10:56:28;;;;;;;;;;;23.00;74.90;;;;;;5014931;28;89528;-42
2023/06/23 10:58:54;;;;;;;;;;;23.00;74.90;;;;;;5012195;28;86919;-47
2023/06/23 11:01:20;;;;;;;;;;;23.00;75.00;;;;;;5018323;28;87291;-43
2023/06/23 11:03:49;;;;;;;;;;;23.10;74.90;;;;;;5013118;28;87369;-44
2023/06/23 11:06:24;;;;;;;;;;;23.10;74.90;;;;;;5014623;28;90044;-44
2023/06/23 11:08:50;;;;;;;;;;;23.10;74.90;;;;;;5008875;28;88393;-45
2023/06/23 11:11:17;;;;;;;;;;;23.10;74.80;;;;;;5008814;28;87136;-44
2023/06/23 11:13:47;;;;;;;;;;;23.10;74.80;;;;;;5008121;28;88869;-43
2023/06/23 11:16:17;;;;;;;;;;;23.20;74.90;;;;;;5014935;28;88103;-44
2023/06/23 11:18:49;;;;;;;;;;;23.20;74.90;;;;;;5012823;28;87117;-43
2023/06/23 11:21:35;;;;;;;;;;;23.20;74.80;;;;;;5015037;28;88639;-43
2023/06/23 11:24:07;;;;;;;;;;;23.20;74.80;;;;;;5011216;28;88078;-42
2023/06/23 11:26:33;;;;;;;;;;;23.20;74.80;;;;;;5009315;28;88791;-43
2023/06/23 11:28:58;;;;;;;;;;;23.30;74.90;;;;;;5014248;28;88180;-45
2023/06/23 11:31:30;;;;;;;;;;;23.30;74.80;;;;;;5010533;28;86388;-43
2023/06/23 11:33:55;;;;;;;;;;;23.30;74.70;;;;;;5015456;28;88327;-43
2023/06/23 11:36:23;;;;;;;;;;;23.30;74.70;;;;;;5012777;28;88157;-45
2023/06/23 11:38:49;;;;;;;;;;;23.30;74.60;;;;;;5015023;28;88030;-44
2023/06/23 11:41:23;;;;;;;;;;;23.40;74.70;;;;;;5011783;28;87361;-43
2023/06/23 11:43:48;;;;;;;;;;;23.40;74.70;;;;;;5013625;28;88201;-43
2023/06/23 11:46:14;;;;;;;;;;;23.50;74.70;;;;;;5013859;28;87159;-43
2023/06/23 11:48:41;;;;;;;;;;;23.50;74.60;;;;;;5010590;28;89262;-44
2023/06/23 11:51:08;;;;;;;;;;;23.40;74.60;;;;;;5014061;28;87409;-43
2023/06/23 11:53:34;;;;;;;;;;;23.40;74.60;;;;;;5012109;28;88037;-45
2023/06/23 11:56:00;;;;;;;;;;;23.50;74.60;;;;;;5014582;28;87367;-44
2023/06/23 11:58:30;;;;;;;;;;;23.50;74.50;;;;;;5011728;28;87100;-45
2023/06/23 12:00:56;;;;;;;;;;;23.50;74.50;;;;;;5012961;28;89002;-45
2023/06/23 12:03:21;;;;;;;;;;;23.50;74.40;;;;;;5009492;28;88608;-44
2023/06/23 12:05:47;;;;;;;;;;;23.60;74.50;;;;;;5011235;28;87108;-44
2023/06/23 12:08:13;;;;;;;;;;;23.60;74.40;;;;;;5016688;28;87556;-46
2023/06/23 12:10:40;;;;;;;;;;;23.60;74.60;;;;;;5010787;28;87110;-43
2023/06/23 12:13:09;;;;;;;;;;;23.60;74.50;;;;;;5014069;28;89284;-43
2023/06/23 12:15:35;;;;;;;;;;;23.60;74.50;;;;;;5010324;28;88227;-43
2023/06/23 12:18:01;;;;;;;;;;;23.70;74.50;;;;;;5010266;28;87117;-43
2023/06/23 12:20:27;;;;;;;;;;;23.70;74.50;;;;;;5014608;28;87360;-42
2023/06/23 12:22:52;;;;;;;;;;;23.70;74.40;;;;;;5010349;28;87180;-44
2023/06/23 12:25:18;;;;;;;;;;;23.70;74.50;;;;;;5014287;28;87050;-44
2023/06/23 12:27:56;;;;;;;;;;;23.70;74.40;;;;;;5009898;28;88502;-43
2023/06/23 12:30:22;;;;;;;;;;;23.80;74.40;;;;;;5009730;28;87937;-47
2023/06/23 12:32:47;;;;;;;;;;;23.80;74.40;;;;;;5006696;28;88805;-43
2023/06/23 12:35:18;;;;;;;;;;;23.80;74.40;;;;;;5012949;28;87401;-44
2023/06/23 12:37:47;;;;;;;;;;;23.80;74.30;;;;;;5011158;28;87156;-44
2023/06/23 12:40:32;;;;;;;;;;;23.90;74.40;;;;;;4954241;28;1650495;-47
2023/06/23 12:42:58;;;;;;;;;;;23.90;74.40;;;;;;5006816;28;88508;-44
2023/06/23 12:45:24;;;;;;;;;;;23.90;74.50;;;;;;5007111;28;86480;-45
2023/06/23 12:47:51;;;;;;;;;;;23.90;74.40;;;;;;5011418;28;87091;-42
2023/06/23 12:50:24;;;;;;;;;;;23.90;74.50;;;;;;5010770;28;87156;-43
2023/06/23 12:52:50;;;;;;;;;;;23.90;74.50;;;;;;5010236;28;88485;-43
2023/06/23 12:55:15;;;;;;;;;;;23.90;74.40;;;;;;5013693;28;87341;-42
2023/06/23 12:57:44;;;;;;;;;;;24.00;74.50;;;;;;5011159;28;87567;-44
2023/06/23 13:00:11;;;;;;;;;;;24.00;74.40;;;;;;5008970;28;87466;-44
2023/06/23 13:02:36;;;;;;;;;;;24.00;74.40;;;;;;5009284;28;88064;-45
2023/06/23 13:05:02;;;;;;;;;;;24.10;74.40;;;;;;5013936;28;87452;-44
2023/06/23 13:07:27;;;;;;;;;;;24.00;74.40;;;;;;5005840;28;87529;-43
2023/06/23 13:09:53;;;;;;;;;;;24.10;74.40;;;;;;5012951;28;87590;-43
2023/06/23 13:12:18;;;;;;;;;;;24.10;74.40;;;;;;5012654;28;87196;-45
2023/06/23 13:14:44;;;;;;;;;;;24.10;74.40;;;;;;5011702;28;88136;-43
2023/06/23 13:17:09;;;;;;;;;;;24.10;74.30;;;;;;5011885;28;88191;-45
2023/06/23 13:19:35;;;;;;;;;;;24.10;74.30;;;;;;5010197;28;89102;-43
2023/06/23 13:22:00;;;;;;;;;;;24.20;74.30;;;;;;5012036;28;87453;-43
2023/06/23 13:24:26;;;;;;;;;;;24.20;74.20;;;;;;5010866;28;87557;-43
2023/06/23 13:26:52;;;;;;;;;;;24.30;74.20;;;;;;5011694;28;87928;-42
2023/06/23 13:29:17;;;;;;;;;;;24.30;74.10;;;;;;5011193;28;89329;-42
2023/06/23 13:31:42;;;;;;;;;;;24.40;74.10;;;;;;5010574;28;87060;-43
2023/06/23 13:34:08;;;;;;;;;;;24.40;74.10;;;;;;5013206;28;88817;-45
2023/06/23 13:36:35;;;;;;;;;;;24.40;74.00;;;;;;5011999;28;87078;-45
2023/06/23 13:39:01;;;;;;;;;;;24.50;74.00;;;;;;5010691;28;87420;-43
2023/06/23 13:41:27;;;;;;;;;;;24.50;73.90;;;;;;5009876;28;90391;-43
2023/06/23 13:43:52;;;;;;;;;;;24.50;74.00;;;;;;5009969;28;87155;-44
2023/06/23 13:46:18;;;;;;;;;;;24.50;74.00;;;;;;5009860;28;87751;-44
2023/06/23 13:48:44;;;;;;;;;;;24.60;74.00;;;;;;5011585;28;88102;-47
2023/06/23 13:51:09;;;;;;;;;;;24.60;74.10;;;;;;5009022;28;87127;-45
2023/06/23 13:53:38;;;;;;;;;;;24.60;74.00;;;;;;5012480;28;87477;-46
2023/06/23 13:56:06;;;;;;;;;;;24.60;74.10;;;;;;5011174;28;89531;-47
2023/06/23 13:58:32;;;;;;;;;;;24.60;74.00;;;;;;5012801;28;87492;-46
2023/06/23 14:00:57;;;;;;;;;;;24.60;74.00;;;;;;5008958;28;88090;-48
2023/06/23 14:03:23;;;;;;;;;;;24.60;74.00;;;;;;5008751;28;87136;-45
2023/06/23 14:05:48;;;;;;;;;;;24.70;74.00;;;;;;5011822;28;88163;-44
2023/06/23 14:08:14;;;;;;;;;;;24.70;74.00;;;;;;5008608;28;88099;-45
2023/06/23 14:10:39;;;;;;;;;;;24.70;73.90;;;;;;5012421;28;87221;-46
2023/06/23 14:13:05;;;;;;;;;;;24.80;73.90;;;;;;5009253;28;87469;-43
2023/06/23 14:15:30;;;;;;;;;;;24.80;73.90;;;;;;5007502;28;88084;-46